createdAt,value
2018-01-01T00:02:25.766Z,82.20
2018-01-01T00:04:53.882Z,82.00
2018-01-01T00:07:22.007Z,83.40
2018-01-01T00:09:50.118Z,84.60
2018-01-01T00:12:18.247Z,83.00
2018-01-01T00:14:46.362Z,83.60
2018-01-01T00:17:14.521Z,83.30
2018-01-01T00:19:42.651Z,85.40
2018-01-01T00:22:10.784Z,84.30
2018-01-01T00:24:38.930Z,82.90
2018-01-01T00:27:07.079Z,82.70
2018-01-01T00:29:35.980Z,82.70
2018-01-01T00:32:04.918Z,81.70
2018-01-01T00:34:33.068Z,81.00
2018-01-01T00:37:01.220Z,81.30
2018-01-01T00:39:30.116Z,82.20
2018-01-01T00:41:58.265Z,82.10
2018-01-01T00:44:26.392Z,81.40
2018-01-01T00:46:54.531Z,80.10
2018-01-01T00:49:23.505Z,78.90
2018-01-01T00:51:51.635Z,78.10
2018-01-01T00:54:19.787Z,78.40
2018-01-01T00:56:47.904Z,78.40
2018-01-01T00:59:16.016Z,77.80
2018-01-01T01:01:44.924Z,75.80
2018-01-01T01:04:13.032Z,75.80
2018-01-01T01:06:41.168Z,74.10
2018-01-01T01:09:09.320Z,75.30
2018-01-01T01:11:38.217Z,76.10
2018-01-01T01:14:07.122Z,76.20
2018-01-01T01:16:35.242Z,75.30
2018-01-01T01:19:03.407Z,77.20
2018-01-01T01:21:31.547Z,76.90
2018-01-01T01:23:59.653Z,78.90
2018-01-01T01:26:27.850Z,76.80
2018-01-01T01:28:55.963Z,79.40
2018-01-01T01:31:24.075Z,79.70
2018-01-01T01:33:52.220Z,79.20
2018-01-01T01:36:20.328Z,82.00
2018-01-01T01:38:48.479Z,80.70
2018-01-01T01:41:16.615Z,81.40
2018-01-01T01:43:45.522Z,82.30
2018-01-01T01:46:14.400Z,82.90
2018-01-01T01:48:47.118Z,83.20
2018-01-01T01:51:15.264Z,82.50
2018-01-01T01:53:43.443Z,82.50
2018-01-01T01:56:11.551Z,82.70
2018-01-01T01:58:39.792Z,82.20
2018-01-01T02:01:07.935Z,81.00
2018-01-01T02:03:36.849Z,80.60
2018-01-01T02:06:04.976Z,80.30
2018-01-01T02:08:33.097Z,80.50
2018-01-01T02:11:01.255Z,80.40
2018-01-01T02:13:30.147Z,79.00
2018-01-01T02:15:59.053Z,77.70
2018-01-01T02:18:27.177Z,77.40
2018-01-01T02:20:55.280Z,76.40
2018-01-01T02:23:24.176Z,75.10
2018-01-01T02:25:53.122Z,73.10
2018-01-01T02:28:21.244Z,72.60
2018-01-01T02:30:50.148Z,70.00
2018-01-01T02:33:18.266Z,69.00
2018-01-01T02:35:46.424Z,72.40
2018-01-01T02:38:14.562Z,69.50
2018-01-01T02:40:43.853Z,69.70
2018-01-01T02:43:13.031Z,68.60
2018-01-01T02:45:42.307Z,68.80
2018-01-01T02:48:10.493Z,66.10
2018-01-01T02:50:38.616Z,66.40
2018-01-01T02:53:07.649Z,64.00
2018-01-01T02:55:35.807Z,63.70
2018-01-01T02:58:03.952Z,64.40
2018-01-01T03:00:32.884Z,65.10
2018-01-01T03:03:01.012Z,64.30
2018-01-01T03:05:29.977Z,65.30
2018-01-01T03:07:58.193Z,65.30
2018-01-01T03:10:26.360Z,65.40
2018-01-01T03:12:54.825Z,67.20
2018-01-01T03:15:23.008Z,65.10
2018-01-01T03:17:51.197Z,64.50
2018-01-01T03:20:19.456Z,65.20
2018-01-01T03:22:47.685Z,64.90
2018-01-01T03:25:15.945Z,64.10
2018-01-01T03:27:44.074Z,65.30
2018-01-01T03:30:12.335Z,65.60
2018-01-01T03:32:40.544Z,64.20
2018-01-01T03:35:08.737Z,64.80
2018-01-01T03:37:36.994Z,65.20
2018-01-01T03:40:05.210Z,65.90
2018-01-01T03:42:33.503Z,66.00
2018-01-01T03:45:01.750Z,66.40
2018-01-01T03:47:29.968Z,66.40
2018-01-01T03:49:58.192Z,66.10
2018-01-01T03:52:26.372Z,65.70
2018-01-01T03:54:54.583Z,66.50
2018-01-01T03:57:22.736Z,65.70
2018-01-01T03:59:50.989Z,65.50
2018-01-01T04:02:19.221Z,67.00
2018-01-01T04:04:47.445Z,67.40
2018-01-01T04:07:15.669Z,66.90
2018-01-01T04:09:43.928Z,66.80
2018-01-01T04:12:12.252Z,66.80
2018-01-01T04:14:41.210Z,68.20
2018-01-01T04:17:09.419Z,67.40
2018-01-01T04:19:37.692Z,67.60
2018-01-01T04:22:06.708Z,69.00
2018-01-01T04:24:34.897Z,69.10
2018-01-01T04:27:03.140Z,69.50
2018-01-01T04:29:32.124Z,70.00
2018-01-01T04:32:01.073Z,70.10
2018-01-01T04:34:29.207Z,69.60
2018-01-01T04:36:57.395Z,70.20
2018-01-01T04:39:25.571Z,70.20
2018-01-01T04:41:53.704Z,70.20
2018-01-01T04:44:21.855Z,70.80
2018-01-01T04:46:50.057Z,69.80
2018-01-01T04:49:18.176Z,69.80
2018-01-01T04:51:46.312Z,70.00
2018-01-01T04:54:15.245Z,71.10
2018-01-01T04:56:43.392Z,70.90
2018-01-01T04:59:11.530Z,70.70
2018-01-01T05:01:39.741Z,71.20
2018-01-01T05:04:07.979Z,70.80
2018-01-01T05:06:36.135Z,71.90
2018-01-01T05:09:04.314Z,72.40
2018-01-01T05:11:32.489Z,72.70
2018-01-01T05:14:00.617Z,72.40
2018-01-01T05:16:28.795Z,73.00
2018-01-01T05:18:56.933Z,73.20
2018-01-01T05:21:25.860Z,74.00
2018-01-01T05:23:54.005Z,73.60
2018-01-01T05:26:22.900Z,72.60
2018-01-01T05:28:51.890Z,72.60
2018-01-01T05:31:20.858Z,72.30
2018-01-01T05:33:49.480Z,72.10
2018-01-01T05:36:17.656Z,71.70
2018-01-01T05:38:45.821Z,71.20
2018-01-01T05:41:14.760Z,70.30
2018-01-01T05:43:42.904Z,70.20
2018-01-01T05:46:11.081Z,70.00
2018-01-01T05:48:39.223Z,69.70
2018-01-01T05:51:08.128Z,70.40
2018-01-01T05:53:36.293Z,70.20
2018-01-01T05:56:05.279Z,70.70
2018-01-01T05:58:33.416Z,70.00
2018-01-01T06:01:01.581Z,70.90
2018-01-01T06:03:30.466Z,71.60
2018-01-01T06:05:58.629Z,72.30
2018-01-01T06:08:26.755Z,72.00
2018-01-01T06:10:54.880Z,71.90
2018-01-01T06:13:23.024Z,72.20
2018-01-01T06:15:51.939Z,72.30
2018-01-01T06:18:20.110Z,71.90
2018-01-01T06:20:49.025Z,72.30
2018-01-01T06:23:17.381Z,72.10
2018-01-01T06:25:45.724Z,72.20
2018-01-01T06:28:13.872Z,71.40
2018-01-01T06:30:42.017Z,71.30
2018-01-01T06:33:10.179Z,70.80
2018-01-01T06:35:38.311Z,70.50
2018-01-01T06:38:06.457Z,70.00
2018-01-01T06:40:34.575Z,69.50
2018-01-01T06:43:03.491Z,69.50
2018-01-01T06:45:31.624Z,69.10
2018-01-01T06:47:59.750Z,68.70
2018-01-01T06:50:27.889Z,69.80
2018-01-01T06:52:56.816Z,69.60
2018-01-01T06:55:25.193Z,69.40
2018-01-01T06:57:53.339Z,69.40
2018-01-01T07:00:21.480Z,69.30
2018-01-01T07:02:49.688Z,69.40
2018-01-01T07:05:18.575Z,69.50
2018-01-01T07:07:47.517Z,69.00
2018-01-01T07:10:15.762Z,68.90
2018-01-01T07:12:43.879Z,69.10
2018-01-01T07:15:12.028Z,69.00
2018-01-01T07:17:40.231Z,68.30
2018-01-01T07:20:08.459Z,67.50
2018-01-01T07:22:36.585Z,67.60
2018-01-01T07:25:04.712Z,67.30
2018-01-01T07:27:32.899Z,67.10
2018-01-01T07:30:01.053Z,67.30
2018-01-01T07:32:29.229Z,67.00
2018-01-01T07:34:57.374Z,67.20
2018-01-01T07:37:26.265Z,68.40
2018-01-01T07:39:55.190Z,68.40
2018-01-01T07:42:23.334Z,68.60
2018-01-01T07:44:52.271Z,68.30
2018-01-01T07:47:20.418Z,68.30
2018-01-01T07:49:48.567Z,67.70
2018-01-01T07:52:17.496Z,68.10
2018-01-01T07:54:45.662Z,67.60
2018-01-01T07:57:13.832Z,68.30
2018-01-01T07:59:41.981Z,68.50
2018-01-01T08:02:10.859Z,67.70
2018-01-01T08:04:39.084Z,67.20
2018-01-01T08:07:07.201Z,67.50
2018-01-01T08:09:35.404Z,67.80
2018-01-01T08:12:04.360Z,68.10
2018-01-01T08:14:32.505Z,67.60
2018-01-01T08:17:00.713Z,67.60
2018-01-01T08:19:28.848Z,67.70
2018-01-01T08:21:57.007Z,67.80
2018-01-01T08:24:25.148Z,67.70
2018-01-01T08:26:54.110Z,68.20
2018-01-01T08:29:22.252Z,67.80
2018-01-01T08:31:50.437Z,68.70
2018-01-01T08:34:18.627Z,69.50
2018-01-01T08:36:46.876Z,72.80
2018-01-01T08:39:14.989Z,75.10
2018-01-01T08:41:43.192Z,75.60
2018-01-01T08:44:12.174Z,77.40
2018-01-01T08:46:40.391Z,78.10
2018-01-01T08:49:08.582Z,77.90
2018-01-01T08:51:36.707Z,78.50
2018-01-01T08:54:04.852Z,80.90
2018-01-01T08:56:32.973Z,82.40
2018-01-01T08:59:01.113Z,82.50
2018-01-01T09:01:29.237Z,83.00
2018-01-01T09:03:57.376Z,82.00
2018-01-01T09:06:26.260Z,84.80
2018-01-01T09:08:54.407Z,84.10
2018-01-01T09:11:22.552Z,84.10
2018-01-01T09:13:50.684Z,84.30
2018-01-01T09:16:19.611Z,85.50
2018-01-01T09:18:47.745Z,85.40
2018-01-01T09:21:15.865Z,86.50
2018-01-01T09:23:44.011Z,86.00
2018-01-01T09:26:12.892Z,84.80
2018-01-01T09:28:41.864Z,85.30
2018-01-01T09:31:10.059Z,85.10
2018-01-01T09:33:38.167Z,86.40
2018-01-01T09:36:06.317Z,86.20
2018-01-01T09:38:35.205Z,85.50
2018-01-01T09:41:03.358Z,85.30
2018-01-01T09:43:31.512Z,84.70
2018-01-01T09:45:59.646Z,80.20
2018-01-01T09:48:27.806Z,78.20
2018-01-01T09:50:56.686Z,65.50
2018-01-01T09:53:25.627Z,66.30
2018-01-01T09:55:53.759Z,66.20
2018-01-01T09:58:21.899Z,65.50
2018-01-01T10:00:50.060Z,62.70
2018-01-01T10:03:18.204Z,64.80
2018-01-01T10:05:46.368Z,65.30
2018-01-01T10:08:14.502Z,61.90
2018-01-01T10:10:42.647Z,69.10
2018-01-01T10:13:10.796Z,62.90
2018-01-01T10:15:38.948Z,62.50
2018-01-01T10:18:07.957Z,55.50
2018-01-01T10:20:36.079Z,55.00
2018-01-01T10:23:04.223Z,56.00
2018-01-01T10:25:32.413Z,56.20
2018-01-01T10:28:00.560Z,53.50
2018-01-01T10:30:28.728Z,53.60
2018-01-01T10:32:56.868Z,52.50
2018-01-01T10:35:25.774Z,51.20
2018-01-01T10:37:53.929Z,50.70
2018-01-01T10:40:22.142Z,53.50
2018-01-01T10:42:50.313Z,51.70
2018-01-01T10:45:18.488Z,51.80
2018-01-01T10:47:46.616Z,52.10
2018-01-01T10:50:14.736Z,52.10
2018-01-01T10:52:43.011Z,51.80
2018-01-01T10:55:11.180Z,50.70
2018-01-01T10:57:39.323Z,51.60
2018-01-01T11:00:07.488Z,50.50
2018-01-01T11:02:35.648Z,50.90
2018-01-01T11:05:03.833Z,51.20
2018-01-01T11:07:31.953Z,52.30
2018-01-01T11:10:00.132Z,53.20
2018-01-01T11:12:28.353Z,53.00
2018-01-01T11:14:56.578Z,55.30
2018-01-01T11:17:25.520Z,54.70
2018-01-01T11:19:53.652Z,52.90
2018-01-01T11:22:21.858Z,52.20
2018-01-01T11:24:50.016Z,51.80
2018-01-01T11:27:18.153Z,51.30
2018-01-01T11:29:46.287Z,50.70
2018-01-01T11:32:14.502Z,50.40
2018-01-01T11:34:42.648Z,49.90
2018-01-01T11:37:11.489Z,50.10
2018-01-01T11:39:39.693Z,50.70
2018-01-01T11:42:07.890Z,52.20
2018-01-01T11:44:36.029Z,53.70
2018-01-01T11:47:04.276Z,53.80
2018-01-01T11:49:33.161Z,54.80
2018-01-01T11:52:01.328Z,54.10
2018-01-01T11:54:29.461Z,56.00
2018-01-01T11:56:57.585Z,56.00
2018-01-01T11:59:25.760Z,56.10
2018-01-01T12:01:54.344Z,57.10
2018-01-01T12:04:22.554Z,57.70
2018-01-01T12:06:50.673Z,58.00
2018-01-01T12:09:19.583Z,57.70
2018-01-01T12:11:47.733Z,57.60
2018-01-01T12:14:15.864Z,58.60
2018-01-01T12:16:44.016Z,58.70
2018-01-01T12:19:12.144Z,58.00
2018-01-01T12:21:41.093Z,58.00
2018-01-01T12:24:09.244Z,57.30
2018-01-01T12:26:37.418Z,58.70
2018-01-01T12:29:05.592Z,59.10
2018-01-01T12:31:33.729Z,59.60
2018-01-01T12:34:01.859Z,58.50
2018-01-01T12:36:30.049Z,59.30
2018-01-01T12:38:58.166Z,59.50
2018-01-01T12:41:27.077Z,59.80
2018-01-01T12:43:55.203Z,59.50
2018-01-01T12:46:23.362Z,59.70
2018-01-01T12:48:51.569Z,59.00
2018-01-01T12:51:19.700Z,59.10
2018-01-01T12:53:47.835Z,59.50
2018-01-01T12:56:15.956Z,59.80
2018-01-01T12:58:44.175Z,60.90
2018-01-01T13:01:12.268Z,61.50
2018-01-01T13:03:40.384Z,61.70
2018-01-01T13:06:08.538Z,61.30
2018-01-01T13:08:36.648Z,61.60
2018-01-01T13:11:04.760Z,62.00
2018-01-01T13:13:32.886Z,61.70
2018-01-01T13:16:01.013Z,62.70
2018-01-01T13:18:29.178Z,62.30
2018-01-01T13:20:57.289Z,62.70
2018-01-01T13:23:25.395Z,62.30
2018-01-01T13:25:54.283Z,63.00
2018-01-01T13:28:23.992Z,62.70
2018-01-01T13:30:52.936Z,63.60
2018-01-01T13:33:21.050Z,63.30
2018-01-01T13:35:49.165Z,63.30
2018-01-01T13:38:17.302Z,62.30
2018-01-01T13:40:45.423Z,63.30
2018-01-01T13:43:13.606Z,63.30
2018-01-01T13:45:41.737Z,63.80
2018-01-01T13:48:10.622Z,62.90
2018-01-01T13:50:39.576Z,63.10
2018-01-01T13:53:07.683Z,63.20
2018-01-01T13:55:36.659Z,64.80
2018-01-01T13:58:04.801Z,64.30
2018-01-01T14:00:32.946Z,64.10
2018-01-01T14:03:01.183Z,63.70
2018-01-01T14:05:29.308Z,64.10
2018-01-01T14:07:57.470Z,63.60
2018-01-01T14:10:25.607Z,64.30
2018-01-01T14:12:53.714Z,63.60
2018-01-01T14:15:21.864Z,64.00
2018-01-01T14:17:50.753Z,65.10
2018-01-01T14:20:18.905Z,65.00
2018-01-01T14:22:47.028Z,65.40
2018-01-01T14:25:15.173Z,65.20
2018-01-01T14:27:44.087Z,65.70
2018-01-01T14:30:12.218Z,64.90
2018-01-01T14:32:40.369Z,65.30
2018-01-01T14:35:08.484Z,64.80
2018-01-01T14:37:36.616Z,66.30
2018-01-01T14:40:04.758Z,65.50
2018-01-01T14:42:32.895Z,65.40
2018-01-01T14:45:01.040Z,66.10
2018-01-01T14:47:29.158Z,65.70
2018-01-01T14:49:58.064Z,66.50
2018-01-01T14:52:26.218Z,66.60
2018-01-01T14:54:55.141Z,67.50
2018-01-01T14:57:23.281Z,67.10
2018-01-01T14:59:51.428Z,65.80
2018-01-01T15:02:19.593Z,67.10
2018-01-01T15:04:47.785Z,67.20
2018-01-01T15:07:15.911Z,66.70
2018-01-01T15:09:44.063Z,66.40
2018-01-01T15:12:12.969Z,66.90
2018-01-01T15:14:41.107Z,66.30
2018-01-01T15:17:09.244Z,66.90
2018-01-01T15:19:37.394Z,68.10
2018-01-01T15:22:06.317Z,71.40
2018-01-01T15:24:34.444Z,70.50
2018-01-01T15:27:03.320Z,76.40
2018-01-01T15:29:32.231Z,78.30
2018-01-01T15:32:00.351Z,78.20
2018-01-01T15:34:28.530Z,76.30
2018-01-01T15:36:56.635Z,76.90
2018-01-01T15:39:25.547Z,80.30
2018-01-01T15:41:54.436Z,80.80
2018-01-01T15:44:22.558Z,80.10
2018-01-01T15:46:50.716Z,81.00
2018-01-01T15:49:18.857Z,79.70
2018-01-01T15:51:47.927Z,81.00
2018-01-01T15:54:16.875Z,81.50
2018-01-01T15:56:45.011Z,81.40
2018-01-01T15:59:13.925Z,79.00
2018-01-01T16:01:42.120Z,78.30
2018-01-01T16:04:10.266Z,79.20
2018-01-01T16:06:38.415Z,79.20
2018-01-01T16:11:42.556Z,78.00
2018-01-01T16:14:10.678Z,78.30
2018-01-01T16:16:39.021Z,76.80
2018-01-01T16:19:07.151Z,76.70
2018-01-01T16:21:35.320Z,75.70
2018-01-01T16:24:03.501Z,75.60
2018-01-01T16:26:31.616Z,75.70
2018-01-01T16:28:59.744Z,76.50
2018-01-01T16:31:27.880Z,77.50
2018-01-01T16:33:55.996Z,76.90
2018-01-01T16:36:24.132Z,77.40
2018-01-01T16:38:52.240Z,77.50
2018-01-01T16:41:20.396Z,78.80
2018-01-01T16:43:48.540Z,78.30
2018-01-01T16:46:16.700Z,78.70
2018-01-01T16:48:44.869Z,79.90
2018-01-01T16:51:13.020Z,79.00
2018-01-01T16:53:41.979Z,80.60
2018-01-01T16:56:10.148Z,80.30
2018-01-01T16:58:38.316Z,81.30
2018-01-01T17:01:06.432Z,79.50
2018-01-01T17:03:35.349Z,79.90
2018-01-01T17:06:03.630Z,79.40
2018-01-01T17:08:31.768Z,80.70
2018-01-01T17:10:59.888Z,82.20
2018-01-01T17:13:28.027Z,82.40
2018-01-01T17:15:56.938Z,82.60
2018-01-01T17:18:25.048Z,82.20
2018-01-01T17:20:53.207Z,82.60
2018-01-01T17:23:21.344Z,83.70
2018-01-01T17:25:50.228Z,84.60
2018-01-01T17:28:19.152Z,85.30
2018-01-01T17:30:47.264Z,85.20
2018-01-01T17:33:15.422Z,84.60
2018-01-01T17:35:43.613Z,85.00
2018-01-01T17:38:11.768Z,85.20
2018-01-01T17:40:39.933Z,85.10
2018-01-01T17:43:08.083Z,85.90
2018-01-01T17:45:36.245Z,86.30
2018-01-01T17:48:05.123Z,87.30
2018-01-01T17:50:34.011Z,87.20
2018-01-01T17:53:02.915Z,87.40
2018-01-01T17:55:31.788Z,87.80
2018-01-01T17:57:59.939Z,87.50
2018-01-01T18:00:28.045Z,88.30
2018-01-01T18:02:56.918Z,87.80
2018-01-01T18:05:25.071Z,87.70
2018-01-01T18:07:53.967Z,88.40
2018-01-01T18:10:22.139Z,88.40
2018-01-01T18:12:50.284Z,88.00
2018-01-01T18:15:18.479Z,87.80
2018-01-01T18:17:46.600Z,87.60
2018-01-01T18:20:15.493Z,88.20
2018-01-01T18:22:44.413Z,89.60
2018-01-01T18:25:13.316Z,88.60
2018-01-01T18:27:41.878Z,88.90
2018-01-01T18:30:09.995Z,89.10
2018-01-01T18:32:38.122Z,90.00
2018-01-01T18:35:06.280Z,90.10
2018-01-01T18:37:35.159Z,90.00
2018-01-01T18:40:04.052Z,90.10
2018-01-01T18:42:32.943Z,90.00
2018-01-01T18:45:01.867Z,88.80
2018-01-01T18:47:30.086Z,88.80
2018-01-01T18:49:58.247Z,88.30
2018-01-01T18:52:26.372Z,88.50
2018-01-01T18:54:54.600Z,87.80
2018-01-01T18:57:22.750Z,88.10
2018-01-01T18:59:50.973Z,87.40
2018-01-01T19:02:20.003Z,89.60
2018-01-01T19:04:48.199Z,89.60
2018-01-01T19:07:16.386Z,88.90
2018-01-01T19:09:44.626Z,88.10
2018-01-01T19:12:12.868Z,87.60
2018-01-01T19:14:41.861Z,87.00
2018-01-01T19:17:10.065Z,87.00
2018-01-01T19:19:38.276Z,88.30
2018-01-01T19:22:06.500Z,88.00
2018-01-01T19:24:35.471Z,87.60
2018-01-01T19:27:03.658Z,87.60
2018-01-01T19:29:31.791Z,87.40
2018-01-01T19:31:59.968Z,87.70
2018-01-01T19:34:28.141Z,87.40
2018-01-01T19:36:56.676Z,87.60
2018-01-01T19:39:25.643Z,89.00
2018-01-01T19:41:53.839Z,88.90
2018-01-01T19:44:22.788Z,89.40
2018-01-01T19:46:50.988Z,89.40
2018-01-01T19:49:19.965Z,87.80
2018-01-01T19:51:48.180Z,87.70
2018-01-01T19:54:17.237Z,88.10
2018-01-01T19:56:45.440Z,87.90
2018-01-01T19:59:14.424Z,88.80
2018-01-01T20:01:42.568Z,88.70
2018-01-01T20:04:10.744Z,89.20
2018-01-01T20:06:38.942Z,89.40
2018-01-01T20:09:07.052Z,88.70
2018-01-01T20:11:35.952Z,89.60
2018-01-01T20:14:04.064Z,89.60
2018-01-01T20:16:32.187Z,89.00
2018-01-01T20:19:00.332Z,88.50
2018-01-01T20:21:28.439Z,89.60
2018-01-01T20:23:56.584Z,90.00
2018-01-01T20:26:25.504Z,89.60
2018-01-01T20:28:53.709Z,90.00
2018-01-01T20:31:21.835Z,90.10
2018-01-01T20:33:50.738Z,89.70
2018-01-01T20:36:18.866Z,89.70
2018-01-01T20:38:47.021Z,90.20
2018-01-01T20:41:15.180Z,90.40
2018-01-01T20:43:43.398Z,90.40
2018-01-01T20:46:11.525Z,90.90
2018-01-01T20:48:39.758Z,90.80
2018-01-01T20:51:07.924Z,90.80
2018-01-01T20:53:36.455Z,91.00
2018-01-01T20:56:04.592Z,90.90
2018-01-01T20:58:33.549Z,90.60
2018-01-01T21:01:01.727Z,90.60
2018-01-01T21:03:29.912Z,90.50
2018-01-01T21:05:58.092Z,90.70
2018-01-01T21:08:26.245Z,90.70
2018-01-01T21:10:54.364Z,90.80
2018-01-01T21:13:23.318Z,90.80
2018-01-01T21:15:51.468Z,90.70
2018-01-01T21:18:19.632Z,90.40
2018-01-01T21:20:47.822Z,90.00
2018-01-01T21:23:15.987Z,90.80
2018-01-01T21:25:44.126Z,90.30
2018-01-01T21:28:12.256Z,90.40
2018-01-01T21:30:40.373Z,90.10
2018-01-01T21:33:09.298Z,90.20
2018-01-01T21:35:37.419Z,90.10
2018-01-01T21:38:05.556Z,90.40
2018-01-01T21:40:33.683Z,90.10
2018-01-01T21:43:02.592Z,90.30
2018-01-01T21:45:30.715Z,90.20
2018-01-01T21:47:58.852Z,90.50
2018-01-01T21:50:26.988Z,90.30
2018-01-01T21:52:55.876Z,90.50
2018-01-01T21:55:24.772Z,90.20
2018-01-01T21:57:53.704Z,90.00
2018-01-01T22:00:21.827Z,90.00
2018-01-01T22:02:50.745Z,90.20
2018-01-01T22:05:18.868Z,89.90
2018-01-01T22:07:47.004Z,90.30
2018-01-01T22:10:15.194Z,90.20
2018-01-01T22:12:43.325Z,90.20
2018-01-01T22:15:12.264Z,90.30
2018-01-01T22:17:40.381Z,90.20
2018-01-01T22:20:09.268Z,90.10
2018-01-01T22:22:37.378Z,89.40
2018-01-01T22:25:05.506Z,90.60
2018-01-01T22:27:33.648Z,90.60
2018-01-01T22:30:01.760Z,90.60
2018-01-01T22:32:30.704Z,90.50
2018-01-01T22:34:58.832Z,90.50
2018-01-01T22:37:27.711Z,90.10
2018-01-01T22:39:55.833Z,90.10
2018-01-01T22:42:23.968Z,90.10
2018-01-01T22:44:52.884Z,90.20
2018-01-01T22:47:21.027Z,90.00
2018-01-01T22:49:49.910Z,90.10
2018-01-01T22:52:18.106Z,90.20
2018-01-01T22:54:47.004Z,90.10
2018-01-01T22:57:15.163Z,90.10
2018-01-01T22:59:44.118Z,89.60
2018-01-01T23:02:12.232Z,89.50
2018-01-01T23:04:41.149Z,90.00
2018-01-01T23:07:10.036Z,90.00
2018-01-01T23:09:38.139Z,89.00
2018-01-01T23:12:07.050Z,90.20
2018-01-01T23:14:35.168Z,90.00
2018-01-01T23:17:03.308Z,89.60
2018-01-01T23:19:31.412Z,90.60
2018-01-01T23:21:59.519Z,90.40
2018-01-01T23:24:27.661Z,90.20
2018-01-01T23:26:55.793Z,90.50
2018-01-01T23:29:23.947Z,90.70
2018-01-01T23:31:52.060Z,90.40
2018-01-01T23:34:20.962Z,90.60
2018-01-01T23:36:49.850Z,90.80
2018-01-01T23:39:18.719Z,90.70
2018-01-01T23:41:46.855Z,90.60
2018-01-01T23:44:14.975Z,90.40
2018-01-01T23:46:43.877Z,90.30
2018-01-01T23:49:12.770Z,90.20
2018-01-01T23:51:41.640Z,89.90
2018-01-01T23:54:15.716Z,89.90
2018-01-01T23:56:43.819Z,90.40
2018-01-01T23:59:11.940Z,90.60
